sensor_id;sensor_type;location;lat;lon;timestamp;P1;durP1;ratioP1;P2;durP2;ratioP2
54983;SDS011;40884;53.562;9.940;2023-06-24T00:00:25;9.10;;;8.00;;
54983;SDS011;40884;53.562;9.940;2023-06-24T00:01:25;10.80;;;9.57;;
54983;SDS011;40884;53.562;9.940;2023-06-24T00:02:26;10.50;;;9.00;;
54983;SDS011;40884;53.562;9.940;2023-06-24T00:03:26;9.40;;;8.40;;
54983;SDS011;40884;53.562;9.940;2023-06-24T00:04:26;8.97;;;8.07;;
54983;SDS011;40884;53.562;9.940;2023-06-24T00:05:26;9.53;;;8.43;;
54983;SDS011;40884;53.562;9.940;2023-06-24T00:06:26;10.00;;;8.20;;
54983;SDS011;40884;53.562;9.940;2023-06-24T00:07:26;9.87;;;8.87;;
54983;SDS011;40884;53.562;9.940;2023-06-24T00:08:27;9.40;;;8.40;;
54983;SDS011;40884;53.562;9.940;2023-06-24T00:09:27;10.00;;;9.03;;
54983;SDS011;40884;53.562;9.940;2023-06-24T00:10:27;9.47;;;8.37;;
54983;SDS011;40884;53.562;9.940;2023-06-24T00:11:28;10.43;;;9.50;;
54983;SDS011;40884;53.562;9.940;2023-06-24T00:12:28;10.33;;;8.30;;
54983;SDS011;40884;53.562;9.940;2023-06-24T00:13:28;9.43;;;8.50;;
54983;SDS011;40884;53.562;9.940;2023-06-24T00:14:28;10.67;;;9.67;;
54983;SDS011;40884;53.562;9.940;2023-06-24T00:15:28;9.53;;;8.53;;
54983;SDS011;40884;53.562;9.940;2023-06-24T00:16:28;11.40;;;9.13;;
54983;SDS011;40884;53.562;9.940;2023-06-24T00:17:29;10.20;;;9.20;;
54983;SDS011;40884;53.562;9.940;2023-06-24T00:18:29;9.43;;;8.43;;
54983;SDS011;40884;53.562;9.940;2023-06-24T00:19:29;9.93;;;8.93;;
54983;SDS011;40884;53.562;9.940;2023-06-24T00:20:29;9.30;;;8.03;;
54983;SDS011;40884;53.562;9.940;2023-06-24T00:21:29;10.23;;;8.90;;
54983;SDS011;40884;53.562;9.940;2023-06-24T00:22:29;11.53;;;9.37;;
54983;SDS011;40884;53.562;9.940;2023-06-24T00:23:30;9.40;;;8.50;;
54983;SDS011;40884;53.562;9.940;2023-06-24T00:24:30;9.80;;;8.80;;
54983;SDS011;40884;53.562;9.940;2023-06-24T00:25:30;10.17;;;9.03;;
54983;SDS011;40884;53.562;9.940;2023-06-24T00:26:30;10.40;;;9.40;;
54983;SDS011;40884;53.562;9.940;2023-06-24T00:27:30;10.23;;;9.03;;
54983;SDS011;40884;53.562;9.940;2023-06-24T00:28:31;11.40;;;9.27;;
54983;SDS011;40884;53.562;9.940;2023-06-24T00:29:31;10.87;;;9.73;;
54983;SDS011;40884;53.562;9.940;2023-06-24T00:30:31;10.37;;;9.33;;
54983;SDS011;40884;53.562;9.940;2023-06-24T00:31:31;10.40;;;9.40;;
54983;SDS011;40884;53.562;9.940;2023-06-24T00:32:31;12.07;;;9.90;;
54983;SDS011;40884;53.562;9.940;2023-06-24T00:33:31;10.37;;;8.47;;
54983;SDS011;40884;53.562;9.940;2023-06-24T00:34:31;10.63;;;9.53;;
54983;SDS011;40884;53.562;9.940;2023-06-24T00:35:32;11.60;;;9.20;;
54983;SDS011;40884;53.562;9.940;2023-06-24T00:36:32;9.80;;;8.87;;
54983;SDS011;40884;53.562;9.940;2023-06-24T00:37:32;9.90;;;8.90;;
54983;SDS011;40884;53.562;9.940;2023-06-24T00:38:32;12.30;;;9.10;;
54983;SDS011;40884;53.562;9.940;2023-06-24T00:39:33;8.97;;;8.07;;
54983;SDS011;40884;53.562;9.940;2023-06-24T00:40:33;10.53;;;9.50;;
54983;SDS011;40884;53.562;9.940;2023-06-24T00:41:33;10.67;;;9.47;;
54983;SDS011;40884;53.562;9.940;2023-06-24T00:42:34;10.07;;;8.97;;
54983;SDS011;40884;53.562;9.940;2023-06-24T00:43:34;10.17;;;9.17;;
54983;SDS011;40884;53.562;9.940;2023-06-24T00:44:35;10.47;;;9.27;;
54983;SDS011;40884;53.562;9.940;2023-06-24T00:45:35;10.53;;;9.43;;
54983;SDS011;40884;53.562;9.940;2023-06-24T00:46:36;10.43;;;8.43;;
54983;SDS011;40884;53.562;9.940;2023-06-24T00:47:36;10.53;;;8.67;;
54983;SDS011;40884;53.562;9.940;2023-06-24T00:48:36;10.00;;;9.10;;
54983;SDS011;40884;53.562;9.940;2023-06-24T00:49:36;9.83;;;8.73;;
54983;SDS011;40884;53.562;9.940;2023-06-24T00:50:36;9.87;;;8.87;;
54983;SDS011;40884;53.562;9.940;2023-06-24T00:51:37;9.13;;;8.23;;
54983;SDS011;40884;53.562;9.940;2023-06-24T00:52:37;9.93;;;9.00;;
54983;SDS011;40884;53.562;9.940;2023-06-24T00:53:37;10.50;;;9.10;;
54983;SDS011;40884;53.562;9.940;2023-06-24T00:54:37;10.37;;;9.30;;
54983;SDS011;40884;53.562;9.940;2023-06-24T00:55:37;11.07;;;9.20;;
54983;SDS011;40884;53.562;9.940;2023-06-24T00:56:39;11.07;;;8.70;;
54983;SDS011;40884;53.562;9.940;2023-06-24T00:57:41;12.13;;;9.13;;
54983;SDS011;40884;53.562;9.940;2023-06-24T00:58:41;10.97;;;9.50;;
54983;SDS011;40884;53.562;9.940;2023-06-24T00:59:43;10.60;;;9.37;;
54983;SDS011;40884;53.562;9.940;2023-06-24T01:00:44;10.90;;;9.43;;
54983;SDS011;40884;53.562;9.940;2023-06-24T01:01:45;10.83;;;9.50;;
54983;SDS011;40884;53.562;9.940;2023-06-24T01:02:46;10.70;;;9.20;;
54983;SDS011;40884;53.562;9.940;2023-06-24T01:03:47;11.73;;;10.10;;
54983;SDS011;40884;53.562;9.940;2023-06-24T01:04:48;11.40;;;9.83;;
54983;SDS011;40884;53.562;9.940;2023-06-24T01:05:48;10.70;;;9.33;;
54983;SDS011;40884;53.562;9.940;2023-06-24T01:06:48;10.50;;;8.93;;
54983;SDS011;40884;53.562;9.940;2023-06-24T01:07:49;9.70;;;8.50;;
54983;SDS011;40884;53.562;9.940;2023-06-24T01:08:50;10.77;;;8.93;;
54983;SDS011;40884;53.562;9.940;2023-06-24T01:09:50;11.57;;;9.07;;
54983;SDS011;40884;53.562;9.940;2023-06-24T01:10:50;11.20;;;9.03;;
54983;SDS011;40884;53.562;9.940;2023-06-24T01:11:51;8.53;;;7.73;;
54983;SDS011;40884;53.562;9.940;2023-06-24T01:12:52;11.57;;;9.50;;
54983;SDS011;40884;53.562;9.940;2023-06-24T01:13:52;10.80;;;9.40;;
54983;SDS011;40884;53.562;9.940;2023-06-24T01:14:52;9.77;;;8.77;;
54983;SDS011;40884;53.562;9.940;2023-06-24T01:15:52;10.40;;;9.40;;
54983;SDS011;40884;53.562;9.940;2023-06-24T01:17:55;10.93;;;9.20;;
54983;SDS011;40884;53.562;9.940;2023-06-24T01:18:57;10.83;;;9.00;;
54983;SDS011;40884;53.562;9.940;2023-06-24T01:21:09;9.60;;;8.67;;
54983;SDS011;40884;53.562;9.940;2023-06-24T01:24:47;10.57;;;8.40;;
54983;SDS011;40884;53.562;9.940;2023-06-24T01:26:12;10.00;;;8.70;;
54983;SDS011;40884;53.562;9.940;2023-06-24T01:28:36;10.37;;;9.27;;
54983;SDS011;40884;53.562;9.940;2023-06-24T01:29:42;11.10;;;9.67;;
54983;SDS011;40884;53.562;9.940;2023-06-24T01:31:04;11.20;;;9.87;;
54983;SDS011;40884;53.562;9.940;2023-06-24T01:32:19;11.07;;;9.87;;
54983;SDS011;40884;53.562;9.940;2023-06-24T01:33:24;10.87;;;9.77;;
54983;SDS011;40884;53.562;9.940;2023-06-24T01:34:31;11.57;;;9.77;;
54983;SDS011;40884;53.562;9.940;2023-06-24T01:35:32;10.50;;;9.40;;
54983;SDS011;40884;53.562;9.940;2023-06-24T01:36:36;9.67;;;8.77;;
54983;SDS011;40884;53.562;9.940;2023-06-24T01:38:46;13.33;;;10.17;;
54983;SDS011;40884;53.562;9.940;2023-06-24T01:39:49;11.47;;;9.40;;
54983;SDS011;40884;53.562;9.940;2023-06-24T01:40:50;11.20;;;10.10;;
54983;SDS011;40884;53.562;9.940;2023-06-24T01:41:53;11.73;;;9.47;;
54983;SDS011;40884;53.562;9.940;2023-06-24T01:42:56;11.20;;;9.87;;
54983;SDS011;40884;53.562;9.940;2023-06-24T01:43:57;12.07;;;10.77;;
54983;SDS011;40884;53.562;9.940;2023-06-24T01:44:57;12.13;;;10.93;;
54983;SDS011;40884;53.562;9.940;2023-06-24T01:45:58;11.43;;;10.33;;
54983;SDS011;40884;53.562;9.940;2023-06-24T01:46:59;11.53;;;10.33;;
54983;SDS011;40884;53.562;9.940;2023-06-24T01:48:02;11.43;;;10.33;;
54983;SDS011;40884;53.562;9.940;2023-06-24T01:49:03;13.73;;;11.50;;
54983;SDS011;40884;53.562;9.940;2023-06-24T01:50:04;13.10;;;11.50;;
54983;SDS011;40884;53.562;9.940;2023-06-24T01:51:09;12.97;;;11.63;;
54983;SDS011;40884;53.562;9.940;2023-06-24T01:52:10;12.60;;;11.30;;
54983;SDS011;40884;53.562;9.940;2023-06-24T01:53:12;13.37;;;12.03;;
54983;SDS011;40884;53.562;9.940;2023-06-24T01:54:14;13.43;;;11.23;;
54983;SDS011;40884;53.562;9.940;2023-06-24T01:55:16;13.47;;;12.07;;
54983;SDS011;40884;53.562;9.940;2023-06-24T01:56:17;13.00;;;11.60;;
54983;SDS011;40884;53.562;9.940;2023-06-24T01:57:19;14.53;;;12.33;;
54983;SDS011;40884;53.562;9.940;2023-06-24T01:58:20;13.07;;;10.30;;
54983;SDS011;40884;53.562;9.940;2023-06-24T01:59:21;11.03;;;9.93;;
54983;SDS011;40884;53.562;9.940;2023-06-24T02:00:21;13.03;;;11.67;;
54983;SDS011;40884;53.562;9.940;2023-06-24T02:01:23;13.77;;;11.63;;
54983;SDS011;40884;53.562;9.940;2023-06-24T02:02:23;13.03;;;11.80;;
54983;SDS011;40884;53.562;9.940;2023-06-24T02:03:25;13.03;;;11.40;;
54983;SDS011;40884;53.562;9.940;2023-06-24T02:04:26;13.93;;;12.53;;
54983;SDS011;40884;53.562;9.940;2023-06-24T02:05:29;13.03;;;11.73;;
54983;SDS011;40884;53.562;9.940;2023-06-24T02:06:31;14.00;;;12.60;;
54983;SDS011;40884;53.562;9.940;2023-06-24T02:07:32;14.23;;;12.30;;
54983;SDS011;40884;53.562;9.940;2023-06-24T02:08:33;13.50;;;12.20;;
54983;SDS011;40884;53.562;9.940;2023-06-24T02:09:34;13.00;;;11.70;;
54983;SDS011;40884;53.562;9.940;2023-06-24T02:10:38;13.13;;;11.73;;
54983;SDS011;40884;53.562;9.940;2023-06-24T02:11:38;16.60;;;12.90;;
54983;SDS011;40884;53.562;9.940;2023-06-24T02:12:39;14.30;;;12.47;;
54983;SDS011;40884;53.562;9.940;2023-06-24T02:13:40;14.23;;;12.73;;
54983;SDS011;40884;53.562;9.940;2023-06-24T02:14:48;13.53;;;12.03;;
54983;SDS011;40884;53.562;9.940;2023-06-24T02:15:49;13.77;;;12.37;;
54983;SDS011;40884;53.562;9.940;2023-06-24T02:16:49;14.93;;;12.93;;
54983;SDS011;40884;53.562;9.940;2023-06-24T02:17:51;12.93;;;11.57;;
54983;SDS011;40884;53.562;9.940;2023-06-24T02:18:52;13.50;;;12.20;;
54983;SDS011;40884;53.562;9.940;2023-06-24T02:19:53;13.60;;;12.20;;
54983;SDS011;40884;53.562;9.940;2023-06-24T02:20:54;15.17;;;13.13;;
54983;SDS011;40884;53.562;9.940;2023-06-24T02:21:56;15.17;;;13.07;;
54983;SDS011;40884;53.562;9.940;2023-06-24T02:22:56;10.80;;;9.70;;
54983;SDS011;40884;53.562;9.940;2023-06-24T02:23:57;14.43;;;12.93;;
54983;SDS011;40884;53.562;9.940;2023-06-24T02:24:58;15.00;;;12.90;;
54983;SDS011;40884;53.562;9.940;2023-06-24T02:25:58;13.30;;;11.97;;
54983;SDS011;40884;53.562;9.940;2023-06-24T02:26:59;16.50;;;13.23;;
54983;SDS011;40884;53.562;9.940;2023-06-24T02:28:00;14.40;;;10.93;;
54983;SDS011;40884;53.562;9.940;2023-06-24T02:29:00;14.43;;;12.77;;
54983;SDS011;40884;53.562;9.940;2023-06-24T02:30:00;14.07;;;12.13;;
54983;SDS011;40884;53.562;9.940;2023-06-24T02:31:00;13.60;;;12.20;;
54983;SDS011;40884;53.562;9.940;2023-06-24T02:32:01;14.37;;;12.87;;
54983;SDS011;40884;53.562;9.940;2023-06-24T02:33:01;15.87;;;14.23;;
54983;SDS011;40884;53.562;9.940;2023-06-24T02:34:01;12.87;;;11.67;;
54983;SDS011;40884;53.562;9.940;2023-06-24T02:35:02;15.63;;;13.23;;
54983;SDS011;40884;53.562;9.940;2023-06-24T02:36:02;15.03;;;13.53;;
54983;SDS011;40884;53.562;9.940;2023-06-24T02:37:02;14.67;;;13.07;;
54983;SDS011;40884;53.562;9.940;2023-06-24T02:38:03;15.67;;;13.80;;
54983;SDS011;40884;53.562;9.940;2023-06-24T02:39:03;14.63;;;13.20;;
54983;SDS011;40884;53.562;9.940;2023-06-24T02:40:04;15.37;;;13.87;;
54983;SDS011;40884;53.562;9.940;2023-06-24T02:41:04;15.47;;;13.87;;
54983;SDS011;40884;53.562;9.940;2023-06-24T02:42:05;14.57;;;13.00;;
54983;SDS011;40884;53.562;9.940;2023-06-24T02:43:05;16.93;;;13.77;;
54983;SDS011;40884;53.562;9.940;2023-06-24T02:44:05;14.97;;;13.47;;
54983;SDS011;40884;53.562;9.940;2023-06-24T02:45:05;14.50;;;12.87;;
54983;SDS011;40884;53.562;9.940;2023-06-24T02:46:06;17.60;;;14.83;;
54983;SDS011;40884;53.562;9.940;2023-06-24T02:47:09;16.90;;;14.53;;
54983;SDS011;40884;53.562;9.940;2023-06-24T02:48:10;15.30;;;13.70;;
54983;SDS011;40884;53.562;9.940;2023-06-24T02:49:12;16.20;;;14.50;;
54983;SDS011;40884;53.562;9.940;2023-06-24T02:50:13;14.80;;;13.17;;
54983;SDS011;40884;53.562;9.940;2023-06-24T02:51:14;17.80;;;13.83;;
54983;SDS011;40884;53.562;9.940;2023-06-24T02:52:15;14.63;;;13.07;;
54983;SDS011;40884;53.562;9.940;2023-06-24T02:53:15;15.90;;;14.20;;
54983;SDS011;40884;53.562;9.940;2023-06-24T02:54:16;14.47;;;13.00;;
54983;SDS011;40884;53.562;9.940;2023-06-24T02:55:39;15.17;;;13.67;;
54983;SDS011;40884;53.562;9.940;2023-06-24T02:56:40;15.63;;;14.13;;
54983;SDS011;40884;53.562;9.940;2023-06-24T02:57:40;15.83;;;13.50;;
54983;SDS011;40884;53.562;9.940;2023-06-24T02:58:59;13.43;;;12.00;;
54983;SDS011;40884;53.562;9.940;2023-06-24T03:00:00;14.73;;;13.10;;
54983;SDS011;40884;53.562;9.940;2023-06-24T03:01:13;15.17;;;13.67;;
54983;SDS011;40884;53.562;9.940;2023-06-24T03:02:24;16.07;;;13.20;;
54983;SDS011;40884;53.562;9.940;2023-06-24T03:03:25;15.10;;;13.60;;
54983;SDS011;40884;53.562;9.940;2023-06-24T03:04:28;14.40;;;12.93;;
54983;SDS011;40884;53.562;9.940;2023-06-24T03:05:28;15.00;;;12.97;;
54983;SDS011;40884;53.562;9.940;2023-06-24T03:06:29;15.43;;;13.33;;
54983;SDS011;40884;53.562;9.940;2023-06-24T03:07:34;13.33;;;11.97;;
54983;SDS011;40884;53.562;9.940;2023-06-24T03:08:36;13.23;;;11.70;;
54983;SDS011;40884;53.562;9.940;2023-06-24T03:09:36;15.33;;;13.73;;
54983;SDS011;40884;53.562;9.940;2023-06-24T03:10:36;12.87;;;11.47;;
54983;SDS011;40884;53.562;9.940;2023-06-24T03:11:40;13.07;;;11.67;;
54983;SDS011;40884;53.562;9.940;2023-06-24T03:12:41;11.40;;;10.20;;
54983;SDS011;40884;53.562;9.940;2023-06-24T03:13:42;14.87;;;12.83;;
54983;SDS011;40884;53.562;9.940;2023-06-24T03:14:54;14.90;;;12.07;;
54983;SDS011;40884;53.562;9.940;2023-06-24T03:15:54;12.43;;;10.13;;
54983;SDS011;40884;53.562;9.940;2023-06-24T03:16:55;15.00;;;13.47;;
54983;SDS011;40884;53.562;9.940;2023-06-24T03:17:57;13.70;;;12.30;;
54983;SDS011;40884;53.562;9.940;2023-06-24T03:18:57;15.27;;;13.23;;
54983;SDS011;40884;53.562;9.940;2023-06-24T03:19:57;15.07;;;13.47;;
54983;SDS011;40884;53.562;9.940;2023-06-24T03:20:57;16.20;;;14.17;;
54983;SDS011;40884;53.562;9.940;2023-06-24T03:22:02;14.97;;;13.10;;
54983;SDS011;40884;53.562;9.940;2023-06-24T03:23:03;15.47;;;13.40;;
54983;SDS011;40884;53.562;9.940;2023-06-24T03:24:03;14.80;;;13.27;;
54983;SDS011;40884;53.562;9.940;2023-06-24T03:25:03;15.10;;;13.57;;
54983;SDS011;40884;53.562;9.940;2023-06-24T03:26:05;17.07;;;14.60;;
54983;SDS011;40884;53.562;9.940;2023-06-24T03:27:05;13.87;;;12.43;;
54983;SDS011;40884;53.562;9.940;2023-06-24T03:28:13;14.83;;;13.33;;
54983;SDS011;40884;53.562;9.940;2023-06-24T03:29:19;15.50;;;13.80;;
54983;SDS011;40884;53.562;9.940;2023-06-24T03:30:48;14.63;;;13.07;;
54983;SDS011;40884;53.562;9.940;2023-06-24T03:31:52;14.47;;;12.93;;
54983;SDS011;40884;53.562;9.940;2023-06-24T03:32:55;15.27;;;13.77;;
54983;SDS011;40884;53.562;9.940;2023-06-24T03:33:56;15.00;;;12.73;;
54983;SDS011;40884;53.562;9.940;2023-06-24T03:34:57;15.33;;;13.83;;
54983;SDS011;40884;53.562;9.940;2023-06-24T03:35:58;15.77;;;13.07;;
54983;SDS011;40884;53.562;9.940;2023-06-24T03:37:02;17.97;;;13.43;;
54983;SDS011;40884;53.562;9.940;2023-06-24T03:38:02;15.40;;;13.70;;
54983;SDS011;40884;53.562;9.940;2023-06-24T03:39:05;16.83;;;13.63;;
54983;SDS011;40884;53.562;9.940;2023-06-24T03:40:06;16.63;;;14.13;;
54983;SDS011;40884;53.562;9.940;2023-06-24T03:41:07;15.87;;;14.27;;
54983;SDS011;40884;53.562;9.940;2023-06-24T03:42:07;15.37;;;11.77;;
54983;SDS011;40884;53.562;9.940;2023-06-24T03:43:07;14.00;;;12.47;;
54983;SDS011;40884;53.562;9.940;2023-06-24T03:44:07;13.50;;;12.10;;
54983;SDS011;40884;53.562;9.940;2023-06-24T03:45:09;13.77;;;12.30;;
54983;SDS011;40884;53.562;9.940;2023-06-24T03:46:09;14.17;;;12.67;;
54983;SDS011;40884;53.562;9.940;2023-06-24T03:47:09;13.53;;;11.60;;
54983;SDS011;40884;53.562;9.940;2023-06-24T03:48:10;14.93;;;12.57;;
54983;SDS011;40884;53.562;9.940;2023-06-24T03:49:10;15.70;;;13.77;;
54983;SDS011;40884;53.562;9.940;2023-06-24T03:50:10;15.00;;;13.50;;
54983;SDS011;40884;53.562;9.940;2023-06-24T03:51:10;15.33;;;13.83;;
54983;SDS011;40884;53.562;9.940;2023-06-24T03:52:11;14.97;;;13.37;;
54983;SDS011;40884;53.562;9.940;2023-06-24T03:53:11;13.30;;;11.90;;
54983;SDS011;40884;53.562;9.940;2023-06-24T03:54:13;14.23;;;12.87;;
54983;SDS011;40884;53.562;9.940;2023-06-24T03:55:14;13.93;;;12.40;;
54983;SDS011;40884;53.562;9.940;2023-06-24T03:56:14;13.97;;;12.47;;
54983;SDS011;40884;53.562;9.940;2023-06-24T03:57:14;12.33;;;11.00;;
54983;SDS011;40884;53.562;9.940;2023-06-24T03:58:14;15.00;;;12.97;;
54983;SDS011;40884;53.562;9.940;2023-06-24T03:59:14;14.70;;;13.20;;
54983;SDS011;40884;53.562;9.940;2023-06-24T04:00:14;12.40;;;11.13;;
54983;SDS011;40884;53.562;9.940;2023-06-24T04:01:16;14.50;;;12.73;;
54983;SDS011;40884;53.562;9.940;2023-06-24T04:02:16;14.40;;;12.70;;
54983;SDS011;40884;53.562;9.940;2023-06-24T04:03:16;14.80;;;13.27;;
54983;SDS011;40884;53.562;9.940;2023-06-24T04:04:16;14.53;;;13.13;;
54983;SDS011;40884;53.562;9.940;2023-06-24T04:05:17;13.90;;;12.30;;
54983;SDS011;40884;53.562;9.940;2023-06-24T04:06:17;14.80;;;13.30;;
54983;SDS011;40884;53.562;9.940;2023-06-24T04:07:17;13.23;;;11.93;;
54983;SDS011;40884;53.562;9.940;2023-06-24T04:08:17;15.03;;;13.43;;
54983;SDS011;40884;53.562;9.940;2023-06-24T04:09:17;14.87;;;11.93;;
54983;SDS011;40884;53.562;9.940;2023-06-24T04:10:18;15.03;;;13.20;;
54983;SDS011;40884;53.562;9.940;2023-06-24T04:11:18;13.73;;;12.33;;
54983;SDS011;40884;53.562;9.940;2023-06-24T04:12:18;13.57;;;12.23;;
54983;SDS011;40884;53.562;9.940;2023-06-24T04:13:20;12.17;;;11.07;;
54983;SDS011;40884;53.562;9.940;2023-06-24T04:14:20;14.57;;;12.83;;
54983;SDS011;40884;53.562;9.940;2023-06-24T04:15:20;17.20;;;13.67;;
54983;SDS011;40884;53.562;9.940;2023-06-24T04:16:21;14.13;;;12.53;;
54983;SDS011;40884;53.562;9.940;2023-06-24T04:17:21;11.30;;;10.20;;
54983;SDS011;40884;53.562;9.940;2023-06-24T04:18:21;15.73;;;13.17;;
54983;SDS011;40884;53.562;9.940;2023-06-24T04:19:21;13.60;;;12.30;;
54983;SDS011;40884;53.562;9.940;2023-06-24T04:20:22;15.03;;;13.13;;
54983;SDS011;40884;53.562;9.940;2023-06-24T04:21:22;13.47;;;12.10;;
54983;SDS011;40884;53.562;9.940;2023-06-24T04:22:24;15.37;;;13.70;;
54983;SDS011;40884;53.562;9.940;2023-06-24T04:23:24;15.17;;;13.57;;
54983;SDS011;40884;53.562;9.940;2023-06-24T04:24:25;15.03;;;13.40;;
54983;SDS011;40884;53.562;9.940;2023-06-24T04:25:25;16.53;;;14.10;;
54983;SDS011;40884;53.562;9.940;2023-06-24T04:26:25;11.43;;;10.33;;
54983;SDS011;40884;53.562;9.940;2023-06-24T04:27:25;13.23;;;11.83;;
54983;SDS011;40884;53.562;9.940;2023-06-24T04:28:25;13.87;;;12.47;;
54983;SDS011;40884;53.562;9.940;2023-06-24T04:29:25;16.00;;;13.13;;
54983;SDS011;40884;53.562;9.940;2023-06-24T04:30:25;12.50;;;11.30;;
54983;SDS011;40884;53.562;9.940;2023-06-24T04:31:25;15.27;;;13.77;;
54983;SDS011;40884;53.562;9.940;2023-06-24T04:32:26;15.60;;;13.90;;
54983;SDS011;40884;53.562;9.940;2023-06-24T04:33:26;14.03;;;12.57;;
54983;SDS011;40884;53.562;9.940;2023-06-24T04:34:26;15.63;;;13.50;;
54983;SDS011;40884;53.562;9.940;2023-06-24T04:35:27;15.93;;;14.33;;
54983;SDS011;40884;53.562;9.940;2023-06-24T04:36:27;12.27;;;9.40;;
54983;SDS011;40884;53.562;9.940;2023-06-24T04:37:27;14.77;;;10.80;;
54983;SDS011;40884;53.562;9.940;2023-06-24T04:38:28;13.03;;;11.73;;
54983;SDS011;40884;53.562;9.940;2023-06-24T04:39:28;15.13;;;13.63;;
54983;SDS011;40884;53.562;9.940;2023-06-24T04:40:28;15.87;;;14.10;;
54983;SDS011;40884;53.562;9.940;2023-06-24T04:41:28;16.67;;;13.83;;
54983;SDS011;40884;53.562;9.940;2023-06-24T04:42:29;14.67;;;13.20;;
54983;SDS011;40884;53.562;9.940;2023-06-24T04:43:29;15.20;;;12.43;;
54983;SDS011;40884;53.562;9.940;2023-06-24T04:44:29;12.33;;;10.73;;
54983;SDS011;40884;53.562;9.940;2023-06-24T04:45:29;14.07;;;12.57;;
54983;SDS011;40884;53.562;9.940;2023-06-24T04:46:29;11.53;;;10.37;;
54983;SDS011;40884;53.562;9.940;2023-06-24T04:47:29;13.10;;;11.80;;
54983;SDS011;40884;53.562;9.940;2023-06-24T04:48:29;13.87;;;12.57;;
54983;SDS011;40884;53.562;9.940;2023-06-24T04:49:30;12.97;;;11.67;;
54983;SDS011;40884;53.562;9.940;2023-06-24T04:50:30;13.60;;;12.33;;
54983;SDS011;40884;53.562;9.940;2023-06-24T04:51:30;14.60;;;13.10;;
54983;SDS011;40884;53.562;9.940;2023-06-24T04:52:30;12.10;;;11.00;;
54983;SDS011;40884;53.562;9.940;2023-06-24T04:53:30;13.73;;;12.20;;
54983;SDS011;40884;53.562;9.940;2023-06-24T04:54:30;13.93;;;12.47;;
54983;SDS011;40884;53.562;9.940;2023-06-24T04:55:30;15.07;;;13.53;;
54983;SDS011;40884;53.562;9.940;2023-06-24T04:56:31;14.07;;;11.80;;
54983;SDS011;40884;53.562;9.940;2023-06-24T04:57:31;13.23;;;11.83;;
54983;SDS011;40884;53.562;9.940;2023-06-24T04:58:32;13.77;;;11.80;;
54983;SDS011;40884;53.562;9.940;2023-06-24T04:59:32;12.83;;;11.43;;
54983;SDS011;40884;53.562;9.940;2023-06-24T05:00:32;12.27;;;11.07;;
54983;SDS011;40884;53.562;9.940;2023-06-24T05:01:32;14.30;;;11.50;;
54983;SDS011;40884;53.562;9.940;2023-06-24T05:02:32;12.53;;;11.23;;
54983;SDS011;40884;53.562;9.940;2023-06-24T05:03:32;12.33;;;11.03;;
54983;SDS011;40884;53.562;9.940;2023-06-24T05:04:33;12.30;;;10.63;;
54983;SDS011;40884;53.562;9.940;2023-06-24T05:05:33;12.40;;;11.10;;
54983;SDS011;40884;53.562;9.940;2023-06-24T05:06:33;17.40;;;11.23;;
54983;SDS011;40884;53.562;9.940;2023-06-24T05:07:33;12.97;;;10.90;;
54983;SDS011;40884;53.562;9.940;2023-06-24T05:08:33;10.37;;;9.30;;
54983;SDS011;40884;53.562;9.940;2023-06-24T05:09:33;11.93;;;8.73;;
54983;SDS011;40884;53.562;9.940;2023-06-24T05:10:33;9.23;;;8.33;;
54983;SDS011;40884;53.562;9.940;2023-06-24T05:11:33;14.20;;;9.40;;
54983;SDS011;40884;53.562;9.940;2023-06-24T05:12:33;8.97;;;7.67;;
54983;SDS011;40884;53.562;9.940;2023-06-24T05:13:34;10.10;;;8.73;;
54983;SDS011;40884;53.562;9.940;2023-06-24T05:14:34;9.13;;;7.50;;
54983;SDS011;40884;53.562;9.940;2023-06-24T05:15:34;13.20;;;8.33;;
54983;SDS011;40884;53.562;9.940;2023-06-24T05:16:34;10.53;;;7.67;;
54983;SDS011;40884;53.562;9.940;2023-06-24T05:17:35;10.47;;;7.67;;
54983;SDS011;40884;53.562;9.940;2023-06-24T05:18:35;10.57;;;7.53;;
54983;SDS011;40884;53.562;9.940;2023-06-24T05:19:35;7.90;;;7.07;;
54983;SDS011;40884;53.562;9.940;2023-06-24T05:20:35;7.73;;;6.93;;
54983;SDS011;40884;53.562;9.940;2023-06-24T05:21:35;9.53;;;7.57;;
54983;SDS011;40884;53.562;9.940;2023-06-24T05:22:35;9.50;;;8.00;;
54983;SDS011;40884;53.562;9.940;2023-06-24T05:23:35;7.83;;;7.10;;
54983;SDS011;40884;53.562;9.940;2023-06-24T05:24:36;8.93;;;7.70;;
54983;SDS011;40884;53.562;9.940;2023-06-24T05:25:36;10.27;;;7.47;;
54983;SDS011;40884;53.562;9.940;2023-06-24T05:26:36;8.60;;;7.53;;
54983;SDS011;40884;53.562;9.940;2023-06-24T05:27:36;10.43;;;8.33;;
54983;SDS011;40884;53.562;9.940;2023-06-24T05:28:36;9.20;;;8.03;;
54983;SDS011;40884;53.562;9.940;2023-06-24T05:29:36;9.83;;;8.90;;
54983;SDS011;40884;53.562;9.940;2023-06-24T05:30:36;10.00;;;9.00;;
54983;SDS011;40884;53.562;9.940;2023-06-24T05:31:36;13.37;;;8.70;;
54983;SDS011;40884;53.562;9.940;2023-06-24T05:32:37;10.77;;;8.60;;
54983;SDS011;40884;53.562;9.940;2023-06-24T05:33:37;9.93;;;8.93;;
54983;SDS011;40884;53.562;9.940;2023-06-24T05:34:37;10.57;;;9.47;;
54983;SDS011;40884;53.562;9.940;2023-06-24T05:35:37;11.33;;;9.33;;
54983;SDS011;40884;53.562;9.940;2023-06-24T05:36:37;12.63;;;11.23;;
54983;SDS011;40884;53.562;9.940;2023-06-24T05:37:37;12.50;;;11.20;;
54983;SDS011;40884;53.562;9.940;2023-06-24T05:38:37;12.13;;;11.03;;
54983;SDS011;40884;53.562;9.940;2023-06-24T05:39:37;13.90;;;10.43;;
54983;SDS011;40884;53.562;9.940;2023-06-24T05:40:37;14.63;;;11.37;;
54983;SDS011;40884;53.562;9.940;2023-06-24T05:41:38;12.03;;;10.77;;
54983;SDS011;40884;53.562;9.940;2023-06-24T05:42:38;11.90;;;10.80;;
54983;SDS011;40884;53.562;9.940;2023-06-24T05:43:38;11.07;;;9.00;;
54983;SDS011;40884;53.562;9.940;2023-06-24T05:44:38;10.60;;;9.47;;
54983;SDS011;40884;53.562;9.940;2023-06-24T05:45:39;10.73;;;8.63;;
54983;SDS011;40884;53.562;9.940;2023-06-24T05:46:39;10.00;;;8.57;;
54983;SDS011;40884;53.562;9.940;2023-06-24T05:47:40;9.73;;;8.83;;
54983;SDS011;40884;53.562;9.940;2023-06-24T05:48:40;9.30;;;8.40;;
54983;SDS011;40884;53.562;9.940;2023-06-24T05:49:40;8.70;;;7.80;;
54983;SDS011;40884;53.562;9.940;2023-06-24T05:50:40;8.70;;;7.77;;
54983;SDS011;40884;53.562;9.940;2023-06-24T05:51:40;8.37;;;7.50;;
54983;SDS011;40884;53.562;9.940;2023-06-24T05:52:40;8.10;;;7.30;;
54983;SDS011;40884;53.562;9.940;2023-06-24T05:53:40;9.87;;;7.10;;
54983;SDS011;40884;53.562;9.940;2023-06-24T05:54:41;7.37;;;6.50;;
54983;SDS011;40884;53.562;9.940;2023-06-24T05:55:41;8.87;;;7.60;;
54983;SDS011;40884;53.562;9.940;2023-06-24T05:56:41;10.00;;;7.87;;
54983;SDS011;40884;53.562;9.940;2023-06-24T05:57:41;8.10;;;7.23;;
54983;SDS011;40884;53.562;9.940;2023-06-24T05:58:41;10.40;;;7.83;;
54983;SDS011;40884;53.562;9.940;2023-06-24T05:59:41;7.77;;;6.97;;
54983;SDS011;40884;53.562;9.940;2023-06-24T06:00:41;9.57;;;7.00;;
54983;SDS011;40884;53.562;9.940;2023-06-24T06:01:41;8.90;;;7.20;;
54983;SDS011;40884;53.562;9.940;2023-06-24T06:02:41;7.97;;;7.00;;
54983;SDS011;40884;53.562;9.940;2023-06-24T06:03:42;8.23;;;7.10;;
54983;SDS011;40884;53.562;9.940;2023-06-24T06:04:42;8.57;;;7.67;;
54983;SDS011;40884;53.562;9.940;2023-06-24T06:05:42;9.00;;;8.20;;
54983;SDS011;40884;53.562;9.940;2023-06-24T06:06:42;8.00;;;7.00;;
54983;SDS011;40884;53.562;9.940;2023-06-24T06:07:42;8.03;;;7.23;;